Time;durP1;ratioP1;P1;durP2;ratioP2;P2;SDS_P1;SDS_P2;PMS_P1;PMS_P2;Temp;Humidity;BMP_temperature;BMP_pressure;BME280_temperature;BME280_humidity;BME280_pressure;Samples;Min_cycle;Max_cycle;Signal;HPM_P1;HPM_P2
2024/01/31 06:02:09;;;;;;;36.00;18.87;;;;;;;;;;5164133;23;20563;-80
2024/01/31 06:04:35;;;;;;;38.67;19.20;;;;;;;;;;4959542;29;20464;-80
2024/01/31 06:07:01;;;;;;;33.93;17.43;;;;;;;;;;4968400;29;20499;-79
2024/01/31 06:09:27;;;;;;;32.93;17.30;;;;;;;;;;4957574;29;20412;-80
2024/01/31 06:11:53;;;;;;;33.57;17.87;;;;;;;;;;4955669;28;20441;-80
2024/01/31 06:14:19;;;;;;;31.93;17.77;;;;;;;;;;4955024;28;20483;-79
2024/01/31 06:16:45;;;;;;;44.93;20.03;;;;;;;;;;4959109;29;20788;-82
2024/01/31 06:19:10;;;;;;;38.53;19.00;;;;;;;;;;4959883;29;20830;-82
2024/01/31 06:21:36;;;;;;;35.53;18.67;;;;;;;;;;4961808;28;20464;-82
2024/01/31 06:24:02;;;;;;;36.40;18.00;;;;;;;;;;4964895;29;20433;-81
2024/01/31 06:26:29;;;;;;;42.50;18.53;;;;;;;;;;4960099;29;20790;-82
2024/01/31 06:28:55;;;;;;;35.63;18.10;;;;;;;;;;4959004;28;20447;-82
2024/01/31 06:31:27;;;;;;;31.77;15.90;;;;;;;;;;4957296;28;20452;-82
2024/01/31 06:33:53;;;;;;;39.10;19.13;;;;;;;;;;4963963;28;20404;-82
2024/01/31 06:36:20;;;;;;;48.17;19.90;;;;;;;;;;4961387;29;20469;-79
2024/01/31 06:38:47;;;;;;;45.80;19.40;;;;;;;;;;4959116;29;20428;-79
2024/01/31 06:41:14;;;;;;;30.73;17.03;;;;;;;;;;4963348;28;20453;-80
2024/01/31 06:43:40;;;;;;;43.10;18.77;;;;;;;;;;4964281;29;20436;-80
2024/01/31 06:46:06;;;;;;;35.83;17.90;;;;;;;;;;4965830;29;20424;-81
2024/01/31 06:48:32;;;;;;;30.97;18.07;;;;;;;;;;4959653;29;20429;-78
2024/01/31 06:50:58;;;;;;;33.50;18.87;;;;;;;;;;4950354;29;20545;-75
2024/01/31 06:53:24;;;;;;;41.83;20.20;;;;;;;;;;4947768;29;20418;-71
2024/01/31 06:55:51;;;;;;;39.33;18.40;;;;;;;;;;4938802;29;20477;-73
2024/01/31 06:58:17;;;;;;;40.83;19.17;;;;;;;;;;4940191;29;20444;-78
2024/01/31 07:00:42;;;;;;;38.47;16.17;;;;;;;;;;4948628;29;20466;-78
2024/01/31 07:03:09;;;;;;;40.90;19.77;;;;;;;;;;4964380;29;20412;-78
2024/01/31 07:05:34;;;;;;;35.27;18.10;;;;;;;;;;4964209;29;20949;-78
2024/01/31 07:08:01;;;;;;;36.30;18.73;;;;;;;;;;4957472;29;20421;-79
2024/01/31 07:10:27;;;;;;;43.67;20.13;;;;;;;;;;4956933;28;20455;-78
2024/01/31 07:12:53;;;;;;;41.80;20.70;;;;;;;;;;4959280;29;20428;-78
2024/01/31 07:15:20;;;;;;;32.00;19.47;;;;;;;;;;4968459;29;20523;-78
2024/01/31 07:17:47;;;;;;;38.23;20.10;;;;;;;;;;4951282;29;20425;-79
2024/01/31 07:20:13;;;;;;;45.57;20.33;;;;;;;;;;4952707;29;20434;-79
2024/01/31 07:22:39;;;;;;;51.63;19.03;;;;;;;;;;4951463;29;20409;-78
2024/01/31 07:25:10;;;;;;;35.67;17.97;;;;;;;;;;4952620;29;20428;-78
2024/01/31 07:27:38;;;;;;;35.63;18.00;;;;;;;;;;4945737;29;20754;-74
2024/01/31 07:30:04;;;;;;;37.47;18.40;;;;;;;;;;4938513;29;20445;-72
2024/01/31 07:32:30;;;;;;;35.23;16.83;;;;;;;;;;4938423;29;20484;-73
2024/01/31 07:34:56;;;;;;;35.23;17.03;;;;;;;;;;4943409;29;20964;-72
2024/01/31 07:37:22;;;;;;;39.63;17.70;;;;;;;;;;4945792;29;20417;-78
2024/01/31 07:39:48;;;;;;;35.80;17.50;;;;;;;;;;4955429;29;20418;-78
2024/01/31 07:42:14;;;;;;;46.03;19.67;;;;;;;;;;4970581;29;20442;-78
2024/01/31 07:44:40;;;;;;;44.50;19.57;;;;;;;;;;4971727;29;20409;-78
2024/01/31 07:47:06;;;;;;;36.87;18.30;;;;;;;;;;4962219;29;20444;-78
2024/01/31 07:49:32;;;;;;;43.33;19.63;;;;;;;;;;4957638;29;20425;-78
2024/01/31 07:51:58;;;;;;;40.77;17.67;;;;;;;;;;4957886;29;20452;-78
2024/01/31 07:54:24;;;;;;;39.63;17.97;;;;;;;;;;4958891;29;20465;-79
2024/01/31 07:56:50;;;;;;;35.30;16.37;;;;;;;;;;4949865;29;20425;-73
2024/01/31 07:59:16;;;;;;;33.03;16.90;;;;;;;;;;4946600;28;20432;-77
2024/01/31 08:01:42;;;;;;;40.93;19.77;;;;;;;;;;4947415;29;20456;-74
2024/01/31 08:04:08;;;;;;;35.50;18.97;;;;;;;;;;4957812;29;20493;-77
2024/01/31 08:06:35;;;;;;;35.43;18.50;;;;;;;;;;4966366;29;20424;-77
2024/01/31 08:09:01;;;;;;;43.70;20.20;;;;;;;;;;4966329;29;20429;-77
2024/01/31 08:11:27;;;;;;;38.33;18.37;;;;;;;;;;4967156;29;20439;-77
2024/01/31 08:13:53;;;;;;;39.07;18.37;;;;;;;;;;4968065;29;20427;-77
2024/01/31 08:16:19;;;;;;;42.63;18.70;;;;;;;;;;4967277;29;20488;-77
2024/01/31 08:18:45;;;;;;;34.97;19.73;;;;;;;;;;4969568;29;20428;-78
2024/01/31 08:21:11;;;;;;;42.20;18.13;;;;;;;;;;4971827;29;20500;-77
2024/01/31 08:23:37;;;;;;;39.60;17.10;;;;;;;;;;4973986;29;20417;-78
2024/01/31 08:26:05;;;;;;;39.87;18.77;;;;;;;;;;4973653;29;20424;-78
2024/01/31 08:28:31;;;;;;;30.93;16.93;;;;;;;;;;4955001;29;20406;-78
2024/01/31 08:30:57;;;;;;;33.90;16.70;;;;;;;;;;4957331;29;20481;-77
2024/01/31 08:33:23;;;;;;;35.47;19.17;;;;;;;;;;4973261;29;20440;-77
2024/01/31 08:35:49;;;;;;;37.57;19.20;;;;;;;;;;4969916;28;20524;-77
2024/01/31 08:38:14;;;;;;;28.03;16.53;;;;;;;;;;4972503;29;20421;-77
2024/01/31 08:40:40;;;;;;;39.03;19.53;;;;;;;;;;4954278;29;20955;-77
2024/01/31 08:43:06;;;;;;;34.87;16.30;;;;;;;;;;4969693;29;20453;-78
2024/01/31 08:45:32;;;;;;;33.77;17.77;;;;;;;;;;4970664;29;20425;-77
2024/01/31 08:47:59;;;;;;;37.73;17.30;;;;;;;;;;4967821;29;20444;-77
2024/01/31 08:50:25;;;;;;;40.70;18.73;;;;;;;;;;4958924;28;20417;-77
2024/01/31 08:52:51;;;;;;;31.73;16.90;;;;;;;;;;4969950;29;20429;-77
2024/01/31 08:55:17;;;;;;;33.67;16.60;;;;;;;;;;4966610;28;20503;-78
2024/01/31 08:57:43;;;;;;;33.40;17.67;;;;;;;;;;4959492;29;20413;-77
2024/01/31 09:00:10;;;;;;;35.97;17.60;;;;;;;;;;4958648;29;20428;-77
2024/01/31 09:02:36;;;;;;;37.17;16.70;;;;;;;;;;4956943;29;20443;-78
2024/01/31 09:05:02;;;;;;;41.80;18.30;;;;;;;;;;4965183;29;20437;-77
2024/01/31 09:07:28;;;;;;;40.70;18.97;;;;;;;;;;4963677;29;20413;-78
2024/01/31 09:09:53;;;;;;;42.67;18.50;;;;;;;;;;4958090;29;20828;-77
2024/01/31 09:12:19;;;;;;;42.37;17.20;;;;;;;;;;4959879;29;20476;-79
2024/01/31 09:14:45;;;;;;;37.00;16.80;;;;;;;;;;4954928;29;20880;-74
2024/01/31 09:17:11;;;;;;;43.67;17.13;;;;;;;;;;4954160;28;20848;-78
2024/01/31 09:19:37;;;;;;;35.03;17.13;;;;;;;;;;4955679;29;20429;-79
2024/01/31 09:22:04;;;;;;;32.27;17.70;;;;;;;;;;4956001;28;20511;-79
2024/01/31 09:24:29;;;;;;;35.57;18.27;;;;;;;;;;4963125;29;20421;-76
2024/01/31 09:26:55;;;;;;;38.17;17.60;;;;;;;;;;4954804;28;20479;-75
2024/01/31 09:29:21;;;;;;;32.17;16.40;;;;;;;;;;4953586;29;20417;-80
2024/01/31 09:31:47;;;;;;;30.20;16.27;;;;;;;;;;4957817;28;20445;-78
2024/01/31 09:34:14;;;;;;;42.80;15.13;;;;;;;;;;4954138;28;20641;-77
2024/01/31 09:36:40;;;;;;;30.30;16.53;;;;;;;;;;4954947;28;20947;-76
2024/01/31 09:39:06;;;;;;;39.43;19.00;;;;;;;;;;4934643;29;20418;-77
2024/01/31 09:41:32;;;;;;;26.37;15.00;;;;;;;;;;4948702;28;20480;-76
2024/01/31 09:44:00;;;;;;;49.10;18.77;;;;;;;;;;4947950;29;20506;-76
2024/01/31 09:46:26;;;;;;;29.87;16.43;;;;;;;;;;4947817;28;20428;-76
2024/01/31 09:48:52;;;;;;;39.47;15.63;;;;;;;;;;4952679;28;20421;-76
2024/01/31 09:51:21;;;;;;;35.50;16.53;;;;;;;;;;4952756;28;21075;-76
2024/01/31 09:53:49;;;;;;;33.73;16.37;;;;;;;;;;4953059;29;20433;-76
2024/01/31 09:56:16;;;;;;;33.50;16.50;;;;;;;;;;4954915;29;20456;-77
2024/01/31 09:58:42;;;;;;;37.17;16.90;;;;;;;;;;4954172;28;20421;-73
2024/01/31 10:01:09;;;;;;;34.97;16.40;;;;;;;;;;4957690;28;20531;-76
2024/01/31 10:03:35;;;;;;;25.60;15.77;;;;;;;;;;4960518;29;20433;-77
2024/01/31 10:06:03;;;;;;;36.90;16.20;;;;;;;;;;4954794;29;20516;-76
2024/01/31 10:08:29;;;;;;;33.10;15.90;;;;;;;;;;4956360;28;20567;-76
2024/01/31 10:10:56;;;;;;;31.83;17.40;;;;;;;;;;4953347;29;20460;-77
2024/01/31 10:13:22;;;;;;;35.07;17.80;;;;;;;;;;4950010;29;20425;-77
2024/01/31 10:15:48;;;;;;;41.17;16.67;;;;;;;;;;4955754;29;20453;-77
2024/01/31 10:18:15;;;;;;;26.00;15.80;;;;;;;;;;4951588;29;20792;-77
2024/01/31 10:20:44;;;;;;;33.10;17.43;;;;;;;;;;4944751;29;20429;-76
2024/01/31 10:23:14;;;;;;;34.40;17.30;;;;;;;;;;4956050;29;20456;-76
2024/01/31 10:25:40;;;;;;;32.27;16.20;;;;;;;;;;4953858;29;20429;-76
2024/01/31 10:28:06;;;;;;;38.63;17.80;;;;;;;;;;4953380;29;20425;-77
2024/01/31 10:30:32;;;;;;;32.53;16.93;;;;;;;;;;4955912;29;20445;-77
2024/01/31 10:33:00;;;;;;;31.53;16.60;;;;;;;;;;4957005;29;20424;-77
2024/01/31 10:35:27;;;;;;;29.20;15.97;;;;;;;;;;4956995;29;20457;-77
2024/01/31 10:37:53;;;;;;;28.73;17.13;;;;;;;;;;4958858;29;20424;-77
2024/01/31 10:40:19;;;;;;;32.50;17.37;;;;;;;;;;4954645;29;20424;-76
2024/01/31 10:42:47;;;;;;;32.50;17.27;;;;;;;;;;4954083;29;20908;-76
2024/01/31 10:45:13;;;;;;;41.83;18.73;;;;;;;;;;4955689;29;20502;-78
2024/01/31 10:47:41;;;;;;;27.77;16.40;;;;;;;;;;4962152;29;20189;-76
2024/01/31 10:50:08;;;;;;;31.80;18.73;;;;;;;;;;4946071;28;20445;-78
2024/01/31 10:52:35;;;;;;;31.90;16.17;;;;;;;;;;4975539;28;20424;-76
2024/01/31 10:55:02;;;;;;;34.03;18.03;;;;;;;;;;4960392;28;20561;-76
2024/01/31 10:57:28;;;;;;;33.83;17.10;;;;;;;;;;4978642;28;20452;-75
2024/01/31 10:59:57;;;;;;;36.23;17.10;;;;;;;;;;4975547;28;20430;-75
2024/01/31 11:02:30;;;;;;;39.60;15.43;;;;;;;;;;4970257;28;20484;-79
2024/01/31 11:05:04;;;;;;;37.50;16.60;;;;;;;;;;4982390;28;20417;-77
2024/01/31 11:07:30;;;;;;;31.60;17.87;;;;;;;;;;4962816;29;20429;-75
2024/01/31 11:09:56;;;;;;;34.30;18.70;;;;;;;;;;4957354;29;20979;-77
2024/01/31 11:12:22;;;;;;;35.67;17.23;;;;;;;;;;4958873;28;20428;-78
2024/01/31 11:14:50;;;;;;;39.03;18.80;;;;;;;;;;4958209;29;20503;-73
2024/01/31 11:17:16;;;;;;;38.20;17.53;;;;;;;;;;4956090;29;20439;-73
2024/01/31 11:19:52;;;;;;;31.33;14.80;;;;;;;;;;4956999;29;20420;-76
2024/01/31 11:22:18;;;;;;;39.30;17.77;;;;;;;;;;4957211;29;20955;-76
2024/01/31 11:24:52;;;;;;;37.20;17.37;;;;;;;;;;4962147;28;20420;-76
2024/01/31 11:27:18;;;;;;;33.90;18.90;;;;;;;;;;4968958;28;20411;-75
2024/01/31 11:29:51;;;;;;;37.90;16.70;;;;;;;;;;4976562;28;20502;-77
2024/01/31 11:32:18;;;;;;;33.57;17.97;;;;;;;;;;4977079;28;20436;-76
2024/01/31 11:34:44;;;;;;;33.67;16.80;;;;;;;;;;4976269;28;20455;-76
2024/01/31 11:37:10;;;;;;;33.07;16.77;;;;;;;;;;4968509;28;20460;-74
2024/01/31 11:39:36;;;;;;;38.47;19.47;;;;;;;;;;4956667;29;20409;-74
2024/01/31 11:42:03;;;;;;;33.80;16.50;;;;;;;;;;4941577;28;20495;-76
2024/01/31 11:44:29;;;;;;;41.03;18.30;;;;;;;;;;4939095;29;20420;-78
2024/01/31 11:46:55;;;;;;;32.50;16.67;;;;;;;;;;4952867;29;20499;-77
2024/01/31 11:49:22;;;;;;;39.27;17.67;;;;;;;;;;4959102;29;20408;-78
2024/01/31 11:51:48;;;;;;;32.90;17.03;;;;;;;;;;4956180;29;20452;-78
2024/01/31 11:54:14;;;;;;;33.37;17.83;;;;;;;;;;4959085;29;20448;-79
2024/01/31 11:56:40;;;;;;;31.00;17.40;;;;;;;;;;4958112;28;20460;-79
2024/01/31 11:59:07;;;;;;;29.70;16.33;;;;;;;;;;4984467;28;20427;-78
2024/01/31 12:01:34;;;;;;;29.93;17.07;;;;;;;;;;4959164;29;20497;-78
2024/01/31 12:04:02;;;;;;;32.17;16.03;;;;;;;;;;4956966;29;21021;-77
2024/01/31 12:06:29;;;;;;;33.87;17.37;;;;;;;;;;4950778;29;20420;-78
2024/01/31 12:08:55;;;;;;;33.77;17.53;;;;;;;;;;4953870;29;20421;-78
2024/01/31 12:11:21;;;;;;;37.10;18.23;;;;;;;;;;4943818;29;20437;-78
2024/01/31 12:13:47;;;;;;;35.83;16.10;;;;;;;;;;4944591;29;20562;-78
2024/01/31 12:16:13;;;;;;;33.50;16.97;;;;;;;;;;4982432;23;20500;-78
2024/01/31 12:18:40;;;;;;;41.93;17.90;;;;;;;;;;4962227;28;20413;-77
2024/01/31 12:21:06;;;;;;;33.03;16.07;;;;;;;;;;4967392;28;20483;-78
2024/01/31 12:23:33;;;;;;;38.87;15.70;;;;;;;;;;4977777;28;20415;-77
2024/01/31 12:25:59;;;;;;;32.40;15.90;;;;;;;;;;4977302;28;20829;-78
2024/01/31 12:28:25;;;;;;;35.70;18.20;;;;;;;;;;4968239;28;20481;-78
2024/01/31 12:30:51;;;;;;;33.57;15.50;;;;;;;;;;4937778;29;20520;-78
2024/01/31 12:33:18;;;;;;;32.30;15.80;;;;;;;;;;4938627;29;20426;-78
2024/01/31 12:35:44;;;;;;;26.67;14.63;;;;;;;;;;4936981;29;20536;-78
2024/01/31 12:38:11;;;;;;;30.03;17.50;;;;;;;;;;4938316;29;20413;-78
2024/01/31 12:40:37;;;;;;;34.87;16.43;;;;;;;;;;4945145;29;20420;-78
2024/01/31 12:43:04;;;;;;;38.10;15.97;;;;;;;;;;4940591;28;20422;-76
2024/01/31 12:45:30;;;;;;;33.87;14.90;;;;;;;;;;4935552;29;20450;-76
2024/01/31 12:47:56;;;;;;;27.23;16.00;;;;;;;;;;4949219;29;20424;-75
2024/01/31 12:50:22;;;;;;;29.40;15.03;;;;;;;;;;4954403;29;20425;-75
2024/01/31 12:52:48;;;;;;;38.57;18.23;;;;;;;;;;4953334;29;20459;-75
2024/01/31 12:55:14;;;;;;;39.07;17.17;;;;;;;;;;4955105;29;20979;-74
2024/01/31 12:57:40;;;;;;;34.60;16.80;;;;;;;;;;4955214;29;20444;-74
2024/01/31 13:00:06;;;;;;;38.53;15.93;;;;;;;;;;4955263;28;20785;-74
2024/01/31 13:02:32;;;;;;;37.70;18.10;;;;;;;;;;4950003;29;20778;-74
2024/01/31 13:04:58;;;;;;;37.63;18.97;;;;;;;;;;4936380;29;20827;-74
2024/01/31 13:07:24;;;;;;;43.53;20.43;;;;;;;;;;4936208;29;20505;-75
2024/01/31 13:09:50;;;;;;;38.83;18.10;;;;;;;;;;4937377;29;20483;-74
2024/01/31 13:12:16;;;;;;;35.63;16.70;;;;;;;;;;4937101;29;20429;-74
2024/01/31 13:14:42;;;;;;;39.63;18.87;;;;;;;;;;4944042;29;20456;-73
2024/01/31 13:17:08;;;;;;;37.97;17.73;;;;;;;;;;4953771;29;20466;-73
2024/01/31 13:19:35;;;;;;;35.90;17.57;;;;;;;;;;4954913;29;20454;-73
2024/01/31 13:22:01;;;;;;;39.97;18.10;;;;;;;;;;4952971;28;20470;-74
2024/01/31 13:24:27;;;;;;;41.10;19.30;;;;;;;;;;4952951;29;20432;-73
2024/01/31 13:26:53;;;;;;;39.57;17.17;;;;;;;;;;4954859;29;20436;-73
2024/01/31 13:29:21;;;;;;;35.40;15.93;;;;;;;;;;4954622;29;20520;-73
2024/01/31 13:31:47;;;;;;;35.63;16.77;;;;;;;;;;4953180;29;20431;-73
2024/01/31 13:34:13;;;;;;;39.43;17.40;;;;;;;;;;4954781;28;20816;-73
2024/01/31 13:36:39;;;;;;;49.83;18.00;;;;;;;;;;4954271;29;20432;-74
2024/01/31 13:39:05;;;;;;;38.63;17.43;;;;;;;;;;4953804;28;20413;-73
2024/01/31 13:41:31;;;;;;;33.27;17.63;;;;;;;;;;4952984;29;20421;-74
2024/01/31 13:43:57;;;;;;;35.77;17.10;;;;;;;;;;4941881;28;20993;-72
2024/01/31 13:46:23;;;;;;;32.50;17.37;;;;;;;;;;4949541;29;20445;-72
2024/01/31 13:48:49;;;;;;;36.33;16.40;;;;;;;;;;4953009;29;20421;-71
2024/01/31 13:51:17;;;;;;;35.17;17.43;;;;;;;;;;4954350;29;20418;-72
2024/01/31 13:53:43;;;;;;;37.97;17.83;;;;;;;;;;4954281;29;20417;-72
2024/01/31 13:56:09;;;;;;;34.63;16.80;;;;;;;;;;4953497;28;20476;-71
2024/01/31 13:58:35;;;;;;;49.70;19.30;;;;;;;;;;4953803;28;20420;-72
2024/01/31 14:01:01;;;;;;;50.03;16.97;;;;;;;;;;4949305;28;20893;-73
2024/01/31 14:03:27;;;;;;;35.77;17.10;;;;;;;;;;4946564;29;20425;-78
2024/01/31 14:05:53;;;;;;;40.90;16.70;;;;;;;;;;4953983;28;20503;-71
2024/01/31 14:08:19;;;;;;;36.73;18.70;;;;;;;;;;4953669;29;20452;-73
2024/01/31 14:10:45;;;;;;;37.40;17.43;;;;;;;;;;4953329;28;20421;-74
2024/01/31 14:13:12;;;;;;;39.50;18.07;;;;;;;;;;4953531;28;20495;-73
2024/01/31 14:15:39;;;;;;;39.90;17.20;;;;;;;;;;4953630;28;20532;-74
2024/01/31 14:18:05;;;;;;;36.63;16.47;;;;;;;;;;4953917;28;20822;-74
2024/01/31 14:20:32;;;;;;;43.23;17.30;;;;;;;;;;4953524;28;20445;-74
2024/01/31 14:22:58;;;;;;;34.77;17.70;;;;;;;;;;4953640;29;20892;-74
2024/01/31 14:25:24;;;;;;;42.23;16.90;;;;;;;;;;4953574;29;20437;-74
2024/01/31 14:27:50;;;;;;;34.97;16.83;;;;;;;;;;4952057;29;20782;-74
2024/01/31 14:30:16;;;;;;;34.80;16.80;;;;;;;;;;4953235;28;20411;-73
2024/01/31 14:32:42;;;;;;;29.30;14.40;;;;;;;;;;4953429;28;20731;-73
2024/01/31 14:35:14;;;;;;;33.93;16.90;;;;;;;;;;4952710;28;20472;-72
2024/01/31 14:37:41;;;;;;;40.80;16.17;;;;;;;;;;4951516;29;20400;-73
2024/01/31 14:40:07;;;;;;;31.80;15.60;;;;;;;;;;4934899;29;20441;-75
2024/01/31 14:42:33;;;;;;;33.30;15.30;;;;;;;;;;4933583;29;20898;-75
2024/01/31 14:44:59;;;;;;;31.00;16.30;;;;;;;;;;4934107;29;20417;-74
2024/01/31 14:47:25;;;;;;;35.90;16.67;;;;;;;;;;4933851;29;20413;-74
2024/01/31 14:49:51;;;;;;;34.97;16.50;;;;;;;;;;4951862;29;20499;-74
2024/01/31 14:52:17;;;;;;;30.63;15.43;;;;;;;;;;4952164;29;20432;-76
2024/01/31 14:54:43;;;;;;;39.37;16.80;;;;;;;;;;4952026;28;20471;-76
2024/01/31 14:57:09;;;;;;;33.40;16.13;;;;;;;;;;4934453;29;20444;-76
2024/01/31 14:59:35;;;;;;;33.20;15.87;;;;;;;;;;4933624;29;20557;-75
2024/01/31 15:02:01;;;;;;;30.73;15.87;;;;;;;;;;4933896;29;20788;-74
2024/01/31 15:04:27;;;;;;;29.77;15.63;;;;;;;;;;4933743;29;20501;-74
2024/01/31 15:06:53;;;;;;;36.57;17.17;;;;;;;;;;4933634;29;20504;-73
2024/01/31 15:09:19;;;;;;;31.57;17.07;;;;;;;;;;4934126;29;20417;-75
2024/01/31 15:11:45;;;;;;;42.00;18.03;;;;;;;;;;4934536;29;20425;-73
2024/01/31 15:14:11;;;;;;;37.00;15.97;;;;;;;;;;4934256;29;20497;-72
2024/01/31 15:16:38;;;;;;;44.47;17.50;;;;;;;;;;4933805;29;20989;-73
2024/01/31 15:19:04;;;;;;;31.73;14.20;;;;;;;;;;4933961;29;20456;-72
2024/01/31 15:21:30;;;;;;;37.57;15.53;;;;;;;;;;4934088;29;20405;-72
2024/01/31 15:23:56;;;;;;;33.17;15.87;;;;;;;;;;4934044;29;20420;-71
2024/01/31 15:26:22;;;;;;;31.27;14.70;;;;;;;;;;4938509;29;20448;-73
2024/01/31 15:28:49;;;;;;;34.30;17.77;;;;;;;;;;4952730;28;20432;-72
2024/01/31 15:31:15;;;;;;;37.43;18.00;;;;;;;;;;4950754;28;20409;-73
2024/01/31 15:33:41;;;;;;;35.20;16.80;;;;;;;;;;4935897;29;20432;-73
2024/01/31 15:36:08;;;;;;;41.90;16.33;;;;;;;;;;4932659;29;20477;-72
2024/01/31 15:38:34;;;;;;;36.97;16.63;;;;;;;;;;4933743;29;20445;-74
2024/01/31 15:41:00;;;;;;;33.57;17.13;;;;;;;;;;4933979;29;20422;-75
2024/01/31 15:43:25;;;;;;;42.70;18.03;;;;;;;;;;4933849;29;20452;-73
2024/01/31 15:45:51;;;;;;;33.10;14.37;;;;;;;;;;4934522;29;20438;-74
2024/01/31 15:48:17;;;;;;;37.50;15.73;;;;;;;;;;4937197;29;20417;-74
2024/01/31 15:50:43;;;;;;;35.77;16.43;;;;;;;;;;4937261;29;20413;-74
2024/01/31 15:53:09;;;;;;;35.80;16.83;;;;;;;;;;4937175;29;20421;-74
2024/01/31 15:55:37;;;;;;;35.63;15.97;;;;;;;;;;4937187;29;20477;-73
2024/01/31 15:58:04;;;;;;;34.60;17.60;;;;;;;;;;4937288;29;20944;-73
2024/01/31 16:00:30;;;;;;;44.33;18.83;;;;;;;;;;4937563;29;20477;-74
2024/01/31 16:02:57;;;;;;;36.83;16.37;;;;;;;;;;4937137;29;20442;-73
2024/01/31 16:05:23;;;;;;;38.07;17.93;;;;;;;;;;4937051;29;20469;-73
2024/01/31 16:07:49;;;;;;;39.83;17.37;;;;;;;;;;4935667;29;20833;-73
2024/01/31 16:10:15;;;;;;;34.47;17.17;;;;;;;;;;4937123;29;20414;-73
2024/01/31 16:12:41;;;;;;;38.73;17.10;;;;;;;;;;4935708;29;20506;-74
2024/01/31 16:15:07;;;;;;;32.23;16.43;;;;;;;;;;4936664;29;20500;-74
2024/01/31 16:17:33;;;;;;;36.50;16.53;;;;;;;;;;4953257;29;20421;-73
2024/01/31 16:19:59;;;;;;;29.13;14.37;;;;;;;;;;4956293;28;20464;-73
2024/01/31 16:22:25;;;;;;;36.80;16.87;;;;;;;;;;4956318;28;20821;-73
2024/01/31 16:24:51;;;;;;;34.13;17.40;;;;;;;;;;4954813;28;20428;-73
2024/01/31 16:27:17;;;;;;;44.77;19.53;;;;;;;;;;4956290;28;20468;-73
2024/01/31 16:29:43;;;;;;;35.33;17.40;;;;;;;;;;4956180;28;20435;-74
2024/01/31 16:32:09;;;;;;;40.43;16.40;;;;;;;;;;4956060;28;20417;-74
2024/01/31 16:34:35;;;;;;;38.30;17.90;;;;;;;;;;4956000;28;20428;-75
2024/01/31 16:37:01;;;;;;;41.17;17.97;;;;;;;;;;4956656;28;20790;-73
2024/01/31 16:39:27;;;;;;;38.80;18.50;;;;;;;;;;4955955;28;20425;-74
2024/01/31 16:41:53;;;;;;;47.13;19.07;;;;;;;;;;4955791;28;20772;-74
2024/01/31 16:44:20;;;;;;;48.10;22.27;;;;;;;;;;4947643;28;20521;-74
2024/01/31 16:46:46;;;;;;;48.40;21.83;;;;;;;;;;4936668;29;20452;-73
2024/01/31 16:49:12;;;;;;;39.17;17.60;;;;;;;;;;4936931;29;20425;-73
2024/01/31 16:51:38;;;;;;;42.13;19.00;;;;;;;;;;4936738;29;20824;-73
2024/01/31 16:54:04;;;;;;;48.03;21.23;;;;;;;;;;4936507;29;20421;-73
2024/01/31 16:56:30;;;;;;;40.57;20.30;;;;;;;;;;4936379;29;20516;-73
2024/01/31 16:58:57;;;;;;;46.30;20.80;;;;;;;;;;4934893;29;20787;-74
2024/01/31 17:01:23;;;;;;;37.50;18.03;;;;;;;;;;4936150;29;20413;-72
2024/01/31 17:03:49;;;;;;;37.80;18.60;;;;;;;;;;4936256;29;20480;-73
2024/01/31 17:06:15;;;;;;;42.70;19.43;;;;;;;;;;4936981;29;20441;-73
2024/01/31 17:08:41;;;;;;;40.83;18.97;;;;;;;;;;4936383;29;20509;-74
2024/01/31 17:11:07;;;;;;;40.87;19.70;;;;;;;;;;4934867;29;20815;-74
2024/01/31 17:13:33;;;;;;;46.60;22.27;;;;;;;;;;4936185;29;20481;-74
2024/01/31 17:15:59;;;;;;;47.93;23.07;;;;;;;;;;4935668;29;20516;-74
2024/01/31 17:18:25;;;;;;;41.17;19.73;;;;;;;;;;4935848;29;20546;-74
2024/01/31 17:20:51;;;;;;;62.43;24.40;;;;;;;;;;4937462;29;20893;-74
2024/01/31 17:23:17;;;;;;;55.07;23.80;;;;;;;;;;4937730;29;20410;-73
2024/01/31 17:25:46;;;;;;;57.53;21.20;;;;;;;;;;4939338;29;20433;-75
2024/01/31 17:28:12;;;;;;;44.93;20.83;;;;;;;;;;4955929;29;20455;-74
2024/01/31 17:30:40;;;;;;;55.27;23.70;;;;;;;;;;4955184;29;20415;-74
2024/01/31 17:33:07;;;;;;;40.50;21.13;;;;;;;;;;4955146;29;20420;-74
2024/01/31 17:35:33;;;;;;;53.77;24.63;;;;;;;;;;4953298;29;20983;-73
2024/01/31 17:37:59;;;;;;;44.57;20.57;;;;;;;;;;4954672;29;20440;-73
2024/01/31 17:40:25;;;;;;;48.70;21.90;;;;;;;;;;4953504;29;20964;-72
2024/01/31 17:42:51;;;;;;;48.30;20.67;;;;;;;;;;4954694;28;20413;-74
2024/01/31 17:45:17;;;;;;;42.50;22.00;;;;;;;;;;4954677;28;20448;-73
2024/01/31 17:47:45;;;;;;;53.53;24.00;;;;;;;;;;4955235;29;20417;-73
2024/01/31 17:50:11;;;;;;;54.37;23.77;;;;;;;;;;4955555;29;20412;-73
2024/01/31 17:52:37;;;;;;;53.57;24.40;;;;;;;;;;4954956;29;20424;-74
2024/01/31 17:55:03;;;;;;;50.50;22.87;;;;;;;;;;4954645;29;20505;-73
2024/01/31 17:57:29;;;;;;;52.60;25.87;;;;;;;;;;4954726;29;20758;-73
2024/01/31 17:59:55;;;;;;;42.80;21.13;;;;;;;;;;4954393;29;20417;-73
2024/01/31 18:02:21;;;;;;;59.10;22.20;;;;;;;;;;4955000;29;20419;-73
2024/01/31 18:04:47;;;;;;;44.53;23.47;;;;;;;;;;4955716;29;20809;-74
2024/01/31 18:07:14;;;;;;;60.90;24.77;;;;;;;;;;4954978;29;20436;-73
2024/01/31 18:09:40;;;;;;;46.20;22.63;;;;;;;;;;4954059;28;20432;-73
2024/01/31 18:12:06;;;;;;;53.20;24.27;;;;;;;;;;4955565;29;20833;-74
2024/01/31 18:14:32;;;;;;;62.10;24.80;;;;;;;;;;4955892;29;20417;-74
2024/01/31 18:17:01;;;;;;;57.70;27.63;;;;;;;;;;4956907;29;20492;-72
2024/01/31 18:19:27;;;;;;;56.80;22.87;;;;;;;;;;4957494;28;20511;-74
2024/01/31 18:21:53;;;;;;;49.83;23.53;;;;;;;;;;4958360;28;20444;-75
2024/01/31 18:24:19;;;;;;;57.17;24.30;;;;;;;;;;4957285;28;20421;-74
2024/01/31 18:26:45;;;;;;;60.27;28.93;;;;;;;;;;4957043;28;20428;-73
2024/01/31 18:29:11;;;;;;;58.17;26.13;;;;;;;;;;4956381;28;20500;-73
2024/01/31 18:31:42;;;;;;;48.63;24.03;;;;;;;;;;4955395;28;20524;-74
2024/01/31 18:34:08;;;;;;;61.20;27.30;;;;;;;;;;4953749;28;20429;-74
2024/01/31 18:36:34;;;;;;;79.80;31.27;;;;;;;;;;4954621;28;20519;-73
2024/01/31 18:39:01;;;;;;;71.20;30.20;;;;;;;;;;4957023;29;20898;-72
2024/01/31 18:41:27;;;;;;;63.87;26.27;;;;;;;;;;4956754;28;20423;-74
2024/01/31 18:43:53;;;;;;;50.03;23.33;;;;;;;;;;4956429;28;20436;-74
2024/01/31 18:46:19;;;;;;;64.67;28.33;;;;;;;;;;4957287;28;20436;-72
2024/01/31 18:48:46;;;;;;;62.43;29.67;;;;;;;;;;4957263;28;20810;-72
2024/01/31 18:51:12;;;;;;;68.00;30.90;;;;;;;;;;4957659;28;20417;-73
2024/01/31 18:53:42;;;;;;;75.50;30.70;;;;;;;;;;4957287;28;20790;-73
2024/01/31 18:56:17;;;;;;;67.73;29.27;;;;;;;;;;4955777;28;20636;-72
2024/01/31 18:58:43;;;;;;;58.33;30.67;;;;;;;;;;4955820;29;20415;-72
2024/01/31 19:01:09;;;;;;;64.40;28.77;;;;;;;;;;4956790;28;20473;-74
2024/01/31 19:03:35;;;;;;;70.83;30.87;;;;;;;;;;4955145;28;20417;-74
2024/01/31 19:06:02;;;;;;;61.63;28.30;;;;;;;;;;4954477;28;20441;-74
2024/01/31 19:08:28;;;;;;;66.53;30.93;;;;;;;;;;4953907;28;20495;-74
2024/01/31 19:10:54;;;;;;;75.13;32.37;;;;;;;;;;4952792;28;20420;-73
2024/01/31 19:13:20;;;;;;;77.63;31.53;;;;;;;;;;4954213;29;20421;-73
2024/01/31 19:15:46;;;;;;;70.57;31.93;;;;;;;;;;4953970;28;20508;-73
2024/01/31 19:18:12;;;;;;;78.97;31.37;;;;;;;;;;4952830;28;20416;-72
2024/01/31 19:20:38;;;;;;;62.20;30.40;;;;;;;;;;4954687;28;20493;-73
2024/01/31 19:23:04;;;;;;;63.77;28.60;;;;;;;;;;4958022;28;20419;-73
2024/01/31 19:25:31;;;;;;;82.87;34.00;;;;;;;;;;4957627;28;20440;-72
2024/01/31 19:27:57;;;;;;;68.93;29.57;;;;;;;;;;4958219;28;20424;-72
2024/01/31 19:30:23;;;;;;;65.93;28.00;;;;;;;;;;4958854;28;20464;-72
2024/01/31 19:32:49;;;;;;;79.30;32.50;;;;;;;;;;4957406;29;20428;-73
2024/01/31 19:35:15;;;;;;;61.70;29.00;;;;;;;;;;4957773;29;20891;-73
2024/01/31 19:37:41;;;;;;;62.27;27.93;;;;;;;;;;4957767;28;20777;-73
2024/01/31 19:40:08;;;;;;;66.40;29.77;;;;;;;;;;4958560;29;20439;-75
2024/01/31 19:42:34;;;;;;;55.03;27.10;;;;;;;;;;4956394;29;20427;-74
2024/01/31 19:45:00;;;;;;;54.47;26.23;;;;;;;;;;4957332;29;20417;-73
2024/01/31 19:47:26;;;;;;;58.50;26.73;;;;;;;;;;4957245;29;20491;-74
2024/01/31 19:49:52;;;;;;;54.53;25.87;;;;;;;;;;4956883;28;20762;-75
2024/01/31 19:52:18;;;;;;;54.00;25.97;;;;;;;;;;4957003;28;20444;-74
2024/01/31 19:54:44;;;;;;;62.57;26.23;;;;;;;;;;4956902;29;20448;-74
2024/01/31 19:57:10;;;;;;;63.17;25.97;;;;;;;;;;4956888;29;20429;-75
2024/01/31 19:59:38;;;;;;;51.50;23.80;;;;;;;;;;4956741;29;20487;-73
2024/01/31 20:02:04;;;;;;;66.67;26.40;;;;;;;;;;4955862;29;20999;-74
2024/01/31 20:04:30;;;;;;;53.80;24.27;;;;;;;;;;4956906;28;20780;-74
2024/01/31 20:06:56;;;;;;;60.97;24.60;;;;;;;;;;4956753;28;20436;-74
2024/01/31 20:09:22;;;;;;;52.67;26.50;;;;;;;;;;4956876;29;20468;-74
2024/01/31 20:11:52;;;;;;;60.27;26.40;;;;;;;;;;4956714;28;20428;-74